createdAt,value
2022-08-19T00:01:59.219Z,11.77
2022-08-19T00:04:31.744Z,12.40
2022-08-19T00:07:00.119Z,12.17
2022-08-19T00:09:28.732Z,11.00
2022-08-19T00:11:58.811Z,11.80
2022-08-19T00:14:27.485Z,12.20
2022-08-19T00:16:55.735Z,12.00
2022-08-19T00:19:24.528Z,14.57
2022-08-19T00:21:52.765Z,14.20
2022-08-19T00:24:20.220Z,13.60
2022-08-19T00:26:48.087Z,14.07
2022-08-19T00:29:18.073Z,14.07
2022-08-19T00:31:46.417Z,12.67
2022-08-19T00:34:15.733Z,14.03
2022-08-19T00:36:44.062Z,13.00
2022-08-19T00:39:12.625Z,15.30
2022-08-19T00:41:41.128Z,16.03
2022-08-19T00:44:16.563Z,13.60
2022-08-19T00:46:55.357Z,14.57
2022-08-19T00:49:41.793Z,14.40
2022-08-19T00:52:24.372Z,13.90
2022-08-19T00:54:54.129Z,14.43
2022-08-19T00:57:30.864Z,13.30
2022-08-19T01:00:03.107Z,14.90
2022-08-19T01:02:32.430Z,15.90
2022-08-19T01:05:03.356Z,15.70
2022-08-19T01:07:35.965Z,14.93
2022-08-19T01:10:12.215Z,13.07
2022-08-19T01:12:40.700Z,16.37
2022-08-19T01:15:11.890Z,14.60
2022-08-19T01:17:41.880Z,13.43
2022-08-19T01:20:20.210Z,14.70
2022-08-19T01:22:55.265Z,13.80
2022-08-19T01:25:43.480Z,12.97
2022-08-19T01:28:34.158Z,14.80
2022-08-19T01:31:26.541Z,13.23
2022-08-19T01:33:58.064Z,13.30
2022-08-19T01:36:33.921Z,14.80
2022-08-19T01:39:05.712Z,15.87
2022-08-19T01:41:32.809Z,16.13
2022-08-19T01:44:16.928Z,15.93
2022-08-19T01:46:48.431Z,15.73
2022-08-19T01:49:18.961Z,17.43
2022-08-19T01:51:46.936Z,17.40
2022-08-19T01:54:23.438Z,19.30
2022-08-19T01:57:03.085Z,17.77
2022-08-19T01:59:31.371Z,16.10
2022-08-19T02:01:58.404Z,16.50
2022-08-19T02:04:26.579Z,18.00
2022-08-19T02:06:53.688Z,17.00
2022-08-19T02:09:20.951Z,18.13
2022-08-19T02:11:48.057Z,17.03
2022-08-19T02:14:15.056Z,18.80
2022-08-19T02:16:42.197Z,16.50
2022-08-19T02:19:09.508Z,17.10
2022-08-19T02:21:36.631Z,17.53
2022-08-19T02:24:04.296Z,18.80
2022-08-19T02:26:31.357Z,19.17
2022-08-19T02:28:58.386Z,20.00
2022-08-19T02:31:29.032Z,18.97
2022-08-19T02:33:57.528Z,17.70
2022-08-19T02:36:26.418Z,17.00
2022-08-19T02:38:55.598Z,18.10
2022-08-19T02:41:27.925Z,17.23
2022-08-19T02:44:30.205Z,19.10
2022-08-19T02:46:51.876Z,15.80
2022-08-19T02:49:20.730Z,16.57
2022-08-19T02:51:48.474Z,17.03
2022-08-19T02:54:16.383Z,16.17
2022-08-19T02:56:45.157Z,16.30
2022-08-19T02:59:12.937Z,17.30
2022-08-19T03:01:43.036Z,16.03
2022-08-19T03:04:13.844Z,17.10
2022-08-19T03:06:45.497Z,17.37
2022-08-19T03:09:13.797Z,16.93
2022-08-19T03:11:41.207Z,15.93
2022-08-19T03:14:10.311Z,25.13
2022-08-19T03:16:52.416Z,27.73
2022-08-19T03:19:22.376Z,21.40
2022-08-19T03:21:50.013Z,19.90
2022-08-19T03:24:19.814Z,18.43
2022-08-19T03:26:53.909Z,18.93
2022-08-19T03:29:30.400Z,21.03
2022-08-19T03:31:59.649Z,20.93
2022-08-19T03:34:31.910Z,18.47
2022-08-19T03:37:05.936Z,22.60
2022-08-19T03:39:33.065Z,22.40
2022-08-19T03:42:32.608Z,20.00
2022-08-19T03:44:50.572Z,18.53
2022-08-19T03:47:17.967Z,18.83
2022-08-19T03:49:45.949Z,20.27
2022-08-19T03:52:13.230Z,18.70
2022-08-19T03:54:40.436Z,18.83
2022-08-19T03:57:08.251Z,18.90
2022-08-19T03:59:38.604Z,18.57
2022-08-19T04:02:10.976Z,20.77
2022-08-19T04:04:41.055Z,19.30
2022-08-19T04:07:10.436Z,20.43
2022-08-19T04:09:37.960Z,20.47
2022-08-19T04:12:06.589Z,21.20
2022-08-19T04:14:34.959Z,21.20
2022-08-19T04:17:07.095Z,19.70
2022-08-19T04:19:36.641Z,19.57
2022-08-19T04:22:05.022Z,19.07
2022-08-19T04:24:32.590Z,19.93
2022-08-19T04:27:03.024Z,19.33
2022-08-19T04:29:31.235Z,17.87
2022-08-19T04:31:59.982Z,17.73
2022-08-19T04:34:36.034Z,17.00
2022-08-19T04:37:08.891Z,18.83
2022-08-19T04:39:54.581Z,18.83
2022-08-19T04:42:41.220Z,16.30
2022-08-19T04:45:14.753Z,17.03
2022-08-19T04:47:46.980Z,16.17
2022-08-19T04:50:18.558Z,15.67
2022-08-19T04:52:45.623Z,16.20
2022-08-19T04:55:13.654Z,14.03
2022-08-19T04:57:41.245Z,14.50
2022-08-19T05:00:10.591Z,13.77
2022-08-19T05:02:38.723Z,13.47
2022-08-19T05:05:07.321Z,12.53
2022-08-19T05:07:34.890Z,11.30
2022-08-19T05:10:02.221Z,11.33
2022-08-19T05:12:29.824Z,11.13
2022-08-19T05:14:58.932Z,11.57
2022-08-19T05:17:30.315Z,11.00
2022-08-19T05:20:19.687Z,10.10
2022-08-19T05:22:48.718Z,10.50
2022-08-19T05:25:20.537Z,9.83
2022-08-19T05:27:48.674Z,9.50
2022-08-19T05:30:16.722Z,9.77
2022-08-19T05:32:44.544Z,9.60
2022-08-19T05:35:12.828Z,9.70
2022-08-19T05:37:43.318Z,9.40
2022-08-19T05:40:11.736Z,9.33
2022-08-19T05:42:39.329Z,9.30
2022-08-19T05:45:07.592Z,10.10
2022-08-19T05:47:34.837Z,10.60
2022-08-19T05:50:02.921Z,9.23
2022-08-19T05:52:32.443Z,11.07
2022-08-19T05:55:00.588Z,10.50
2022-08-19T05:57:29.851Z,11.40
2022-08-19T05:59:59.113Z,11.37
2022-08-19T06:02:28.938Z,12.27
2022-08-19T06:04:55.958Z,10.83
2022-08-19T06:07:23.601Z,11.57
2022-08-19T06:09:59.957Z,11.83
2022-08-19T06:12:35.936Z,12.47
2022-08-19T06:15:12.964Z,11.73
2022-08-19T06:17:40.407Z,12.50
2022-08-19T06:20:12.978Z,12.23
2022-08-19T06:23:24.305Z,12.77
2022-08-19T06:26:05.836Z,13.30
2022-08-19T06:31:56.601Z,12.63
2022-08-19T06:35:03.542Z,13.37
2022-08-19T06:38:33.118Z,13.83
2022-08-19T06:42:03.611Z,14.13
2022-08-19T06:44:56.646Z,12.10
2022-08-19T06:47:53.048Z,12.53
2022-08-19T06:51:15.703Z,13.03
2022-08-19T06:53:59.078Z,12.30
2022-08-19T06:56:57.638Z,12.33
2022-08-19T07:00:00.239Z,14.20
2022-08-19T07:02:48.162Z,13.30
2022-08-19T07:05:59.963Z,13.13
2022-08-19T07:08:52.076Z,15.17
2022-08-19T07:11:41.572Z,12.50
2022-08-19T07:14:25.521Z,14.60
2022-08-19T07:17:07.826Z,13.30
2022-08-19T07:23:26.420Z,13.30
2022-08-19T07:27:03.439Z,13.60
2022-08-19T07:30:14.518Z,13.30
2022-08-19T07:36:28.987Z,13.00
2022-08-19T07:49:24.842Z,14.30
2022-08-19T07:52:14.726Z,13.07
2022-08-19T07:54:51.706Z,13.83
2022-08-19T07:58:05.691Z,14.13
2022-08-19T08:01:25.423Z,14.63
2022-08-19T08:15:46.213Z,25.30
2022-08-19T08:18:28.008Z,15.57
2022-08-19T08:21:12.197Z,15.20
2022-08-19T08:34:22.286Z,14.27
2022-08-19T08:37:13.809Z,15.10
2022-08-19T08:39:59.514Z,37.33
2022-08-19T08:43:35.054Z,20.87
2022-08-19T08:46:33.894Z,17.00
2022-08-19T08:53:39.080Z,18.87
2022-08-19T08:56:18.426Z,16.17
2022-08-19T09:07:35.838Z,16.73
2022-08-19T09:07:58.068Z,14.93
2022-08-19T09:08:31.970Z,15.03
2022-08-19T09:10:45.310Z,15.63
2022-08-19T09:14:50.138Z,15.73
2022-08-19T09:17:41.687Z,14.93
2022-08-19T09:24:03.648Z,13.83
2022-08-19T09:27:53.914Z,14.80
2022-08-19T09:30:52.965Z,14.17
2022-08-19T23:01:01.301Z,17.20
2022-08-19T23:03:29.772Z,15.20
2022-08-19T23:06:01.779Z,15.53
2022-08-19T23:08:56.051Z,14.10
2022-08-19T23:11:23.764Z,14.60
2022-08-19T23:13:51.615Z,14.70
2022-08-19T23:16:19.563Z,15.03
2022-08-19T23:18:48.787Z,15.23
2022-08-19T23:21:47.146Z,14.10
2022-08-19T23:24:14.222Z,14.03
2022-08-19T23:27:01.318Z,14.70
2022-08-19T23:29:47.345Z,15.73
2022-08-19T23:32:16.539Z,14.67
2022-08-19T23:34:44.652Z,14.50
2022-08-19T23:37:12.105Z,15.30
2022-08-19T23:39:39.154Z,14.77
2022-08-19T23:42:11.523Z,15.13
2022-08-19T23:44:51.600Z,13.70
2022-08-19T23:47:19.957Z,15.63
2022-08-19T23:49:48.816Z,14.27
2022-08-19T23:52:15.820Z,14.37
2022-08-19T23:54:43.597Z,14.80
2022-08-19T23:57:13.830Z,12.23
2022-08-19T23:59:42.790Z,13.37
